createdAt,value
2018-07-17T00:00:59.251Z,3.00
2018-07-17T00:03:27.446Z,2.40
2018-07-17T00:05:55.729Z,2.40
2018-07-17T00:08:23.894Z,2.27
2018-07-17T00:10:52.057Z,2.40
2018-07-17T00:13:20.271Z,2.20
2018-07-17T00:15:48.456Z,2.53
2018-07-17T00:18:16.610Z,2.30
2018-07-17T00:20:45.044Z,2.60
2018-07-17T00:23:13.219Z,2.50
2018-07-17T00:25:41.405Z,2.40
2018-07-17T00:28:09.568Z,3.13
2018-07-17T00:30:37.755Z,2.90
2018-07-17T00:33:05.945Z,2.83
2018-07-17T00:35:34.112Z,3.03
2018-07-17T00:38:02.300Z,2.60
2018-07-17T00:40:30.473Z,2.83
2018-07-17T00:42:58.663Z,2.53
2018-07-17T00:45:26.934Z,3.00
2018-07-17T00:47:55.108Z,3.27
2018-07-17T00:50:23.295Z,3.47
2018-07-17T00:52:51.639Z,3.40
2018-07-17T00:55:20.012Z,4.33
2018-07-17T00:57:48.194Z,3.90
2018-07-17T01:00:16.415Z,3.10
2018-07-17T01:02:49.954Z,2.40
2018-07-17T01:05:23.536Z,3.40
2018-07-17T01:07:57.277Z,2.80
2018-07-17T01:10:30.800Z,3.47
2018-07-17T01:12:58.259Z,3.07
2018-07-17T01:15:36.596Z,3.80
2018-07-17T01:18:04.823Z,3.20
2018-07-17T01:20:33.114Z,4.10
2018-07-17T01:23:01.284Z,3.70
2018-07-17T01:25:29.459Z,3.37
2018-07-17T01:27:57.643Z,3.30
2018-07-17T01:30:25.844Z,3.37
2018-07-17T01:32:54.071Z,3.33
2018-07-17T01:35:22.255Z,3.20
2018-07-17T01:37:50.576Z,3.27
2018-07-17T01:40:18.760Z,3.20
2018-07-17T01:42:46.919Z,3.20
2018-07-17T01:45:15.110Z,3.00
2018-07-17T01:47:43.267Z,3.17
2018-07-17T01:50:11.439Z,3.70
2018-07-17T01:52:39.616Z,3.30
2018-07-17T01:55:07.795Z,3.10
2018-07-17T01:57:35.961Z,3.37
2018-07-17T02:00:04.540Z,3.50
2018-07-17T02:02:32.508Z,3.00
2018-07-17T02:05:00.742Z,3.20
2018-07-17T02:07:28.881Z,3.60
2018-07-17T02:09:57.055Z,3.13
2018-07-17T02:12:25.248Z,3.20
2018-07-17T02:14:53.492Z,3.00
2018-07-17T02:17:21.684Z,3.07
2018-07-17T02:19:49.856Z,3.17
2018-07-17T02:22:18.044Z,3.50
2018-07-17T02:24:46.224Z,2.93
2018-07-17T02:27:14.411Z,3.43
2018-07-17T02:29:42.583Z,3.43
2018-07-17T02:32:10.761Z,3.00
2018-07-17T02:34:38.943Z,3.67
2018-07-17T02:37:07.137Z,3.23
2018-07-17T02:39:35.110Z,3.87
2018-07-17T02:42:03.310Z,3.50
2018-07-17T02:44:31.495Z,3.50
2018-07-17T02:46:59.655Z,3.13
2018-07-17T02:49:27.812Z,3.30
2018-07-17T02:51:56.000Z,3.40
2018-07-17T02:54:24.200Z,2.50
2018-07-17T02:56:52.356Z,3.83
2018-07-17T02:59:20.715Z,3.13
2018-07-17T03:01:48.898Z,3.20
2018-07-17T03:04:17.063Z,3.43
2018-07-17T03:06:45.230Z,3.90
2018-07-17T03:09:13.404Z,3.90
2018-07-17T03:11:41.566Z,4.10
2018-07-17T03:14:09.665Z,3.80
2018-07-17T03:16:37.862Z,3.50
2018-07-17T03:19:06.032Z,3.70
2018-07-17T03:21:34.216Z,3.80
2018-07-17T03:24:02.377Z,3.80
2018-07-17T03:26:30.543Z,4.57
2018-07-17T03:28:58.732Z,4.17
2018-07-17T03:31:26.904Z,4.40
2018-07-17T03:33:55.110Z,4.40
2018-07-17T03:36:23.313Z,4.57
2018-07-17T03:38:51.273Z,4.30
2018-07-17T03:41:19.564Z,4.20
2018-07-17T03:43:47.746Z,5.20
2018-07-17T03:46:15.928Z,4.80
2018-07-17T03:48:44.111Z,4.60
2018-07-17T03:51:12.287Z,4.10
2018-07-17T03:53:40.620Z,4.13
2018-07-17T03:56:08.787Z,4.57
2018-07-17T03:58:36.959Z,5.30
2018-07-17T04:01:04.936Z,5.10
2018-07-17T04:03:33.120Z,4.80
2018-07-17T04:06:01.304Z,5.20
2018-07-17T04:08:29.483Z,5.77
2018-07-17T04:10:57.676Z,5.97
2018-07-17T04:13:25.935Z,5.00
2018-07-17T04:15:54.029Z,6.00
2018-07-17T04:18:22.422Z,5.93
2018-07-17T04:20:50.630Z,5.60
2018-07-17T04:23:19.030Z,6.50
2018-07-17T04:25:47.212Z,6.30
2018-07-17T04:28:15.433Z,7.40
2018-07-17T04:30:43.625Z,7.10
2018-07-17T04:33:11.603Z,6.80
2018-07-17T04:35:39.776Z,9.33
2018-07-17T04:38:07.956Z,9.40
2018-07-17T04:40:36.125Z,8.40
2018-07-17T04:43:04.315Z,8.57
2018-07-17T04:45:32.475Z,8.37
2018-07-17T04:48:00.631Z,8.30
2018-07-17T04:50:28.611Z,8.90
2018-07-17T04:52:57.111Z,8.20
2018-07-17T04:55:25.299Z,8.63
2018-07-17T04:57:53.486Z,9.50
2018-07-17T05:00:21.695Z,7.53
2018-07-17T05:02:49.679Z,8.40
2018-07-17T05:05:17.854Z,6.87
2018-07-17T05:07:46.011Z,7.33
2018-07-17T05:10:13.991Z,8.40
2018-07-17T05:12:42.168Z,7.47
2018-07-17T05:15:10.343Z,8.17
2018-07-17T05:17:38.748Z,8.07
2018-07-17T05:20:06.978Z,7.90
2018-07-17T05:22:35.123Z,7.87
2018-07-17T05:25:03.298Z,7.60
2018-07-17T05:27:31.270Z,7.63
2018-07-17T05:29:59.440Z,6.63
2018-07-17T05:32:27.603Z,7.40
2018-07-17T05:34:55.805Z,6.30
2018-07-17T05:37:24.131Z,7.00
2018-07-17T05:39:52.299Z,6.97
2018-07-17T05:42:21.277Z,6.37
2018-07-17T05:44:49.444Z,7.97
2018-07-17T05:47:17.644Z,5.60
2018-07-17T05:49:45.813Z,5.57
2018-07-17T05:52:13.994Z,5.10
2018-07-17T05:54:42.173Z,5.07
2018-07-17T05:57:10.333Z,5.77
2018-07-17T05:59:38.583Z,5.57
2018-07-17T06:02:08.270Z,5.90
2018-07-17T06:04:36.462Z,5.67
2018-07-17T06:07:04.419Z,5.63
2018-07-17T06:09:32.600Z,5.30
2018-07-17T06:12:00.588Z,5.27
2018-07-17T06:14:28.760Z,5.97
2018-07-17T06:16:56.959Z,6.20
2018-07-17T06:19:25.147Z,6.27
2018-07-17T06:21:53.347Z,5.67
2018-07-17T06:24:21.523Z,4.77
2018-07-17T06:26:49.523Z,5.83
2018-07-17T06:29:17.702Z,6.03
2018-07-17T06:31:45.872Z,5.50
2018-07-17T06:34:14.225Z,6.30
2018-07-17T06:36:42.168Z,5.20
2018-07-17T06:39:10.495Z,7.00
2018-07-17T06:41:38.684Z,6.77
2018-07-17T06:44:06.860Z,7.00
2018-07-17T06:46:35.024Z,6.53
2018-07-17T06:49:03.191Z,5.90
2018-07-17T06:51:31.366Z,6.60
2018-07-17T06:53:59.555Z,6.80
2018-07-17T06:56:27.727Z,5.93
2018-07-17T06:58:55.904Z,7.13
2018-07-17T07:01:24.077Z,6.53
2018-07-17T07:03:52.255Z,7.03
2018-07-17T07:06:20.469Z,7.20
2018-07-17T07:08:48.649Z,6.30
2018-07-17T07:11:16.880Z,6.60
2018-07-17T07:13:44.983Z,7.47
2018-07-17T07:16:13.148Z,6.50
2018-07-17T07:18:41.313Z,7.80
2018-07-17T07:21:09.497Z,6.87
2018-07-17T07:23:37.673Z,6.90
2018-07-17T07:26:06.147Z,7.50
2018-07-17T07:28:34.314Z,5.93
2018-07-17T07:31:02.566Z,6.83
2018-07-17T07:33:30.660Z,7.00
2018-07-17T07:35:58.847Z,5.97
2018-07-17T07:38:27.004Z,7.20
2018-07-17T07:40:55.184Z,6.07
2018-07-17T07:43:23.373Z,5.00
2018-07-17T07:45:51.560Z,5.50
2018-07-17T07:48:19.723Z,5.83
2018-07-17T07:50:47.945Z,4.87
2018-07-17T07:53:16.127Z,4.90
2018-07-17T07:55:44.322Z,5.30
2018-07-17T07:58:12.498Z,5.23
2018-07-17T08:00:40.663Z,5.20
2018-07-17T08:03:08.864Z,6.50
2018-07-17T08:05:37.093Z,5.63
2018-07-17T08:08:05.303Z,5.13
2018-07-17T08:10:33.464Z,4.37
2018-07-17T08:13:01.684Z,4.80
2018-07-17T08:15:29.651Z,4.03
2018-07-17T08:17:57.658Z,4.53
2018-07-17T08:20:25.824Z,4.70
2018-07-17T08:22:54.016Z,4.13
2018-07-17T08:25:22.339Z,4.90
2018-07-17T08:27:50.283Z,4.80
2018-07-17T08:30:18.492Z,4.73
2018-07-17T08:32:46.647Z,4.50
2018-07-17T08:35:14.807Z,4.43
2018-07-17T08:37:42.988Z,4.43
2018-07-17T08:40:11.169Z,5.07
2018-07-17T08:42:39.464Z,4.80
2018-07-17T08:45:07.409Z,5.37
2018-07-17T08:47:35.357Z,5.03
2018-07-17T08:50:03.602Z,4.23
2018-07-17T08:52:31.772Z,4.17
2018-07-17T08:54:59.946Z,4.80
2018-07-17T08:57:28.133Z,4.40
2018-07-17T08:59:56.322Z,5.70
2018-07-17T09:02:24.483Z,4.37
2018-07-17T09:04:52.665Z,5.10
2018-07-17T09:07:21.044Z,5.00
2018-07-17T09:09:49.211Z,4.90
2018-07-17T09:12:17.392Z,3.97
2018-07-17T09:14:45.588Z,4.43
2018-07-17T09:17:13.764Z,3.90
2018-07-17T09:19:41.927Z,3.90
2018-07-17T09:22:10.107Z,4.00
2018-07-17T09:24:38.294Z,2.90
2018-07-17T09:27:06.512Z,3.80
2018-07-17T09:29:34.696Z,3.50
2018-07-17T09:32:02.888Z,3.57
2018-07-17T09:34:31.053Z,3.00
2018-07-17T09:36:59.259Z,3.80
2018-07-17T09:39:27.431Z,2.90
2018-07-17T09:41:55.600Z,3.40
2018-07-17T09:44:23.834Z,2.93
2018-07-17T09:46:52.000Z,3.13
2018-07-17T09:49:20.177Z,3.30
2018-07-17T09:51:48.360Z,3.60
2018-07-17T09:54:16.563Z,3.00
2018-07-17T09:56:44.719Z,3.40
2018-07-17T09:59:12.992Z,3.47
2018-07-17T10:01:46.371Z,3.33
2018-07-17T10:04:14.547Z,4.60
2018-07-17T10:06:42.718Z,3.53
2018-07-17T10:09:10.892Z,2.60
2018-07-17T10:11:39.059Z,2.60
2018-07-17T10:14:07.248Z,2.63
2018-07-17T10:16:35.584Z,3.30
2018-07-17T10:19:03.764Z,2.33
2018-07-17T10:21:31.960Z,2.53
2018-07-17T10:24:00.138Z,2.40
2018-07-17T10:26:28.408Z,2.20
2018-07-17T10:28:56.508Z,2.00
2018-07-17T10:31:24.702Z,2.40
2018-07-17T10:33:53.288Z,1.60
2018-07-17T10:36:21.491Z,1.53
2018-07-17T10:38:49.679Z,2.17
2018-07-17T10:41:17.849Z,1.93
2018-07-17T10:43:46.047Z,1.60
2018-07-17T10:46:14.242Z,1.73
2018-07-17T10:48:42.433Z,1.63
2018-07-17T10:51:10.366Z,2.30
2018-07-17T10:53:38.552Z,2.33
2018-07-17T10:56:06.734Z,1.60
2018-07-17T10:58:34.913Z,2.83
2018-07-17T11:01:03.168Z,2.73
2018-07-17T11:03:31.286Z,2.77
2018-07-17T11:05:59.227Z,2.90
2018-07-17T11:08:27.444Z,3.03
2018-07-17T11:10:55.565Z,2.93
2018-07-17T11:13:23.816Z,2.50
2018-07-17T11:15:51.972Z,2.33
2018-07-17T11:18:20.148Z,1.90
2018-07-17T11:20:48.340Z,3.27
2018-07-17T11:23:16.615Z,2.10
2018-07-17T11:25:44.780Z,2.70
2018-07-17T11:28:12.976Z,2.90
2018-07-17T11:30:41.152Z,2.43
2018-07-17T11:33:09.343Z,2.40
2018-07-17T11:35:37.507Z,2.70
2018-07-17T11:38:05.732Z,2.10
2018-07-17T11:40:33.911Z,2.63
2018-07-17T11:43:02.485Z,2.20
2018-07-17T11:45:30.644Z,2.47
2018-07-17T11:47:59.701Z,2.40
2018-07-17T11:50:27.937Z,2.03
2018-07-17T11:52:56.106Z,2.80
2018-07-17T11:55:24.339Z,2.47
2018-07-17T11:57:52.495Z,2.50
2018-07-17T12:00:21.180Z,2.80
2018-07-17T12:02:49.364Z,2.20
2018-07-17T12:05:17.535Z,2.10
2018-07-17T12:07:45.720Z,2.70
2018-07-17T12:10:13.668Z,2.80
2018-07-17T12:12:41.887Z,2.40
2018-07-17T12:15:10.045Z,2.83
2018-07-17T12:17:38.029Z,2.27
2018-07-17T12:20:06.478Z,2.67
2018-07-17T12:22:34.272Z,2.50
2018-07-17T12:25:02.472Z,3.00
2018-07-17T12:27:30.688Z,2.20
2018-07-17T12:29:58.858Z,2.40
2018-07-17T12:32:27.027Z,2.10
2018-07-17T12:34:55.291Z,2.60
2018-07-17T12:37:23.535Z,2.33
2018-07-17T12:39:51.758Z,2.60
2018-07-17T12:42:19.880Z,3.13
2018-07-17T12:44:48.063Z,2.60
2018-07-17T12:47:16.312Z,2.13
2018-07-17T12:49:44.536Z,2.27
2018-07-17T12:52:12.693Z,2.40
2018-07-17T12:54:40.872Z,2.00
2018-07-17T12:57:09.043Z,2.53
2018-07-17T12:59:37.247Z,2.70
2018-07-17T13:02:05.730Z,2.50
2018-07-17T13:04:33.899Z,2.90
2018-07-17T13:07:02.086Z,2.33
2018-07-17T13:09:30.027Z,2.13
2018-07-17T13:11:58.441Z,2.30
2018-07-17T13:14:26.423Z,2.50
2018-07-17T13:16:54.583Z,3.00
2018-07-17T13:19:22.853Z,1.93
2018-07-17T13:21:50.812Z,2.50
2018-07-17T13:24:18.984Z,3.00
2018-07-17T13:26:47.162Z,2.63
2018-07-17T13:29:15.149Z,2.30
2018-07-17T13:31:43.323Z,2.07
2018-07-17T13:34:11.505Z,2.37
2018-07-17T13:36:39.693Z,2.00
2018-07-17T13:39:10.244Z,1.90
2018-07-17T13:41:38.398Z,1.53
2018-07-17T13:44:06.768Z,1.60
2018-07-17T13:46:34.958Z,1.43
2018-07-17T13:49:03.224Z,1.43
2018-07-17T13:51:31.418Z,1.83
2018-07-17T13:53:59.591Z,1.77
2018-07-17T13:56:27.789Z,1.73
2018-07-17T13:58:55.988Z,2.00
2018-07-17T14:01:23.986Z,1.70
2018-07-17T14:03:52.192Z,2.20
2018-07-17T14:06:20.389Z,1.70
2018-07-17T14:08:48.559Z,1.63
2018-07-17T14:11:16.777Z,1.90
2018-07-17T14:13:44.948Z,2.00
2018-07-17T14:16:13.120Z,1.63
2018-07-17T14:18:41.322Z,1.90
2018-07-17T14:21:09.519Z,1.80
2018-07-17T14:23:37.755Z,1.53
2018-07-17T14:26:05.696Z,1.60
2018-07-17T14:28:33.873Z,4.03
2018-07-17T14:31:02.049Z,1.90
2018-07-17T14:33:30.220Z,2.40
2018-07-17T14:35:58.452Z,1.67
2018-07-17T14:38:26.611Z,2.10
2018-07-17T14:40:54.804Z,1.33
2018-07-17T14:43:24.162Z,1.40
2018-07-17T14:45:52.334Z,1.40
2018-07-17T14:48:20.598Z,1.70
2018-07-17T14:50:48.681Z,1.70
2018-07-17T14:53:16.885Z,2.20
2018-07-17T14:55:45.049Z,1.80
2018-07-17T14:58:13.212Z,1.47
2018-07-17T15:00:41.440Z,1.77
2018-07-17T15:03:09.387Z,1.60
2018-07-17T15:05:37.629Z,1.27
2018-07-17T15:08:05.812Z,1.60
2018-07-17T15:10:33.972Z,2.00
2018-07-17T15:13:02.164Z,1.20
2018-07-17T15:15:30.501Z,1.50
2018-07-17T15:17:58.644Z,1.00
2018-07-17T15:20:27.664Z,1.40
2018-07-17T15:22:55.859Z,1.47
2018-07-17T15:25:24.053Z,1.30
2018-07-17T15:27:52.565Z,1.37
2018-07-17T15:30:21.188Z,1.47
2018-07-17T15:32:49.388Z,1.73
2018-07-17T15:35:17.675Z,1.80
2018-07-17T15:37:45.726Z,2.33
2018-07-17T15:40:13.907Z,1.50
2018-07-17T15:42:42.063Z,1.77
2018-07-17T15:45:10.283Z,1.57
2018-07-17T15:47:38.480Z,1.80
2018-07-17T15:50:06.407Z,1.10
2018-07-17T15:52:34.608Z,1.70
2018-07-17T15:55:02.565Z,1.53
2018-07-17T15:57:30.731Z,1.70
2018-07-17T15:59:59.550Z,1.90
2018-07-17T16:02:27.662Z,1.63
2018-07-17T16:04:56.101Z,1.50
2018-07-17T16:07:24.233Z,1.53
2018-07-17T16:09:52.419Z,1.40
2018-07-17T16:12:20.587Z,1.53
2018-07-17T16:14:48.784Z,1.47
2018-07-17T16:17:17.569Z,1.87
2018-07-17T16:19:45.979Z,2.20
2018-07-17T16:22:14.181Z,2.10
2018-07-17T16:24:42.376Z,2.20
2018-07-17T16:27:10.562Z,2.20
2018-07-17T16:29:38.732Z,2.70
2018-07-17T16:32:07.119Z,2.70
2018-07-17T16:34:35.292Z,2.90
2018-07-17T16:37:03.455Z,2.97
2018-07-17T16:39:31.686Z,2.83
2018-07-17T16:41:59.873Z,3.00
2018-07-17T16:44:28.107Z,3.00
2018-07-17T16:46:56.419Z,3.30
2018-07-17T16:49:24.697Z,2.37
2018-07-17T16:51:52.863Z,2.70
2018-07-17T16:54:21.060Z,3.10
2018-07-17T16:56:49.216Z,2.50
2018-07-17T16:59:17.413Z,3.10
2018-07-17T17:01:45.583Z,2.73
2018-07-17T17:04:13.760Z,2.80
2018-07-17T17:06:41.948Z,2.90
2018-07-17T17:09:11.491Z,3.63
2018-07-17T17:11:39.707Z,2.70
2018-07-17T17:14:07.979Z,2.67
2018-07-17T17:16:36.140Z,2.90
2018-07-17T17:19:04.320Z,2.57
2018-07-17T17:21:32.507Z,2.50
2018-07-17T17:24:00.776Z,2.97
2018-07-17T17:26:28.900Z,2.30
2018-07-17T17:28:56.863Z,2.47
2018-07-17T17:31:24.923Z,2.33
2018-07-17T17:33:53.099Z,2.80
2018-07-17T17:36:21.369Z,2.80
2018-07-17T17:38:49.528Z,2.47
2018-07-17T17:41:17.695Z,2.70
2018-07-17T17:43:45.875Z,2.30
2018-07-17T17:46:14.044Z,2.57
2018-07-17T17:48:42.289Z,2.90
2018-07-17T17:51:11.711Z,2.00
2018-07-17T17:53:40.116Z,2.43
2018-07-17T17:56:08.348Z,2.27
2018-07-17T17:58:36.604Z,2.50
2018-07-17T18:01:04.868Z,2.73
2018-07-17T18:03:33.171Z,2.53
2018-07-17T18:06:01.459Z,2.93
2018-07-17T18:08:29.668Z,2.17
2018-07-17T18:10:58.556Z,2.10
2018-07-17T18:13:26.843Z,2.23
2018-07-17T18:15:55.115Z,1.90
2018-07-17T18:18:23.369Z,2.00
2018-07-17T18:20:51.571Z,1.97
2018-07-17T18:23:19.779Z,2.23
2018-07-17T18:25:48.128Z,2.30
2018-07-17T18:28:16.139Z,2.00
2018-07-17T18:30:44.340Z,2.27
2018-07-17T18:33:12.796Z,2.43
2018-07-17T18:35:41.071Z,2.30
2018-07-17T18:38:09.256Z,2.20
2018-07-17T18:40:37.429Z,2.43
2018-07-17T18:43:05.928Z,2.10
2018-07-17T18:45:34.147Z,1.93
2018-07-17T18:48:02.485Z,2.37
2018-07-17T18:50:30.671Z,2.30
2018-07-17T18:52:58.825Z,1.90
2018-07-17T18:55:27.187Z,1.90
2018-07-17T18:57:55.435Z,2.60
2018-07-17T19:00:23.748Z,2.17
2018-07-17T19:02:51.907Z,2.17
2018-07-17T19:05:20.131Z,1.63
2018-07-17T19:07:48.079Z,2.07
2018-07-17T19:10:16.663Z,2.00
2018-07-17T19:12:44.939Z,2.10
2018-07-17T19:15:13.165Z,2.17
2018-07-17T19:17:42.023Z,2.27
2018-07-17T19:20:10.050Z,1.60
2018-07-17T19:22:38.362Z,2.00
2018-07-17T19:25:06.390Z,1.60
2018-07-17T19:27:34.745Z,2.00
2018-07-17T19:30:03.324Z,2.23
2018-07-17T19:32:32.789Z,1.90
2018-07-17T19:35:01.116Z,1.90
2018-07-17T19:37:29.285Z,1.77
2018-07-17T19:39:57.520Z,1.70
2018-07-17T19:42:25.551Z,2.53
2018-07-17T19:44:53.803Z,2.27
2018-07-17T19:47:22.066Z,1.60
2018-07-17T19:49:50.354Z,2.20
2018-07-17T19:52:18.799Z,1.57
2018-07-17T19:54:46.948Z,2.20
2018-07-17T19:57:15.155Z,1.80
2018-07-17T19:59:43.824Z,2.47
2018-07-17T20:02:11.948Z,2.23
2018-07-17T20:04:40.251Z,1.73
2018-07-17T20:07:08.487Z,2.00
2018-07-17T20:09:36.912Z,2.03
2018-07-17T20:12:05.499Z,2.20
2018-07-17T20:14:33.879Z,2.23
2018-07-17T20:17:02.239Z,2.00
2018-07-17T20:19:30.515Z,2.00
2018-07-17T20:21:59.595Z,2.20
2018-07-17T20:24:28.911Z,1.90
2018-07-17T20:26:57.135Z,2.13
2018-07-17T20:29:25.354Z,2.27
2018-07-17T20:31:54.151Z,2.30
2018-07-17T20:34:22.371Z,2.20
2018-07-17T20:36:50.573Z,2.33
2018-07-17T20:39:19.678Z,2.60
2018-07-17T20:41:47.929Z,2.37
2018-07-17T20:44:16.168Z,2.30
2018-07-17T20:46:44.236Z,1.87
2018-07-17T20:49:12.355Z,2.00
2018-07-17T20:51:40.592Z,2.10
2018-07-17T20:54:08.533Z,2.47
2018-07-17T20:56:36.756Z,1.83
2018-07-17T20:59:04.953Z,2.00
2018-07-17T21:01:33.141Z,2.00
2018-07-17T21:04:01.347Z,1.73
2018-07-17T21:06:29.536Z,2.47
2018-07-17T21:08:57.517Z,1.50
2018-07-17T21:11:25.727Z,2.07
2018-07-17T21:13:54.041Z,2.20
2018-07-17T21:16:22.036Z,2.00
2018-07-17T21:18:50.256Z,2.00
2018-07-17T21:21:18.556Z,2.10
2018-07-17T21:23:46.818Z,3.13
2018-07-17T21:26:15.049Z,1.60
2018-07-17T21:28:43.248Z,2.20
2018-07-17T21:31:11.503Z,1.73
2018-07-17T21:33:39.683Z,2.73
2018-07-17T21:36:07.927Z,2.00
2018-07-17T21:38:36.086Z,1.77
2018-07-17T21:41:04.093Z,2.70
2018-07-17T21:43:32.272Z,3.07
2018-07-17T21:46:00.468Z,2.13
2018-07-17T21:48:28.655Z,2.27
2018-07-17T21:50:56.829Z,1.80
2018-07-17T21:53:25.019Z,2.90
2018-07-17T21:55:53.220Z,2.17
2018-07-17T21:58:21.383Z,2.50
2018-07-17T22:00:49.328Z,3.10
2018-07-17T22:03:17.554Z,2.63
2018-07-17T22:05:45.723Z,2.10
2018-07-17T22:08:13.931Z,2.03
2018-07-17T22:10:42.141Z,2.30
2018-07-17T22:13:10.126Z,2.37
2018-07-17T22:15:38.397Z,2.50
2018-07-17T22:18:06.604Z,3.10
2018-07-17T22:20:35.000Z,1.97
2018-07-17T22:23:03.188Z,2.40
2018-07-17T22:25:31.400Z,2.77
2018-07-17T22:27:59.601Z,2.20
2018-07-17T22:30:27.792Z,2.10
2018-07-17T22:32:56.019Z,2.00
2018-07-17T22:35:24.188Z,1.87
2018-07-17T22:37:52.371Z,2.50
2018-07-17T22:40:20.544Z,2.00
2018-07-17T22:42:48.781Z,2.20
2018-07-17T22:45:16.963Z,2.57
2018-07-17T22:47:45.192Z,2.20
2018-07-17T22:50:13.399Z,1.73
2018-07-17T22:52:41.595Z,1.70
2018-07-17T22:55:09.579Z,2.50
2018-07-17T22:57:37.769Z,2.47
2018-07-17T23:00:06.824Z,2.40
2018-07-17T23:02:35.000Z,2.00
2018-07-17T23:05:02.947Z,2.77
2018-07-17T23:07:31.123Z,2.50
2018-07-17T23:09:59.431Z,3.10
2018-07-17T23:12:27.358Z,2.40
2018-07-17T23:14:55.591Z,2.27
2018-07-17T23:17:23.788Z,2.30
2018-07-17T23:19:51.976Z,2.67
2018-07-17T23:22:58.686Z,2.00
2018-07-17T23:25:27.944Z,2.70
2018-07-17T23:27:56.883Z,3.13
2018-07-17T23:30:24.839Z,2.40
2018-07-17T23:32:53.236Z,2.43
2018-07-17T23:35:22.344Z,2.83
2018-07-17T23:37:51.090Z,2.70
2018-07-17T23:40:19.731Z,2.70
2018-07-17T23:42:47.927Z,2.77
2018-07-17T23:45:16.658Z,2.53
2018-07-17T23:47:45.136Z,2.17
2018-07-17T23:50:13.066Z,2.50
2018-07-17T23:52:41.251Z,2.73
2018-07-17T23:55:09.443Z,2.83
2018-07-17T23:57:37.614Z,3.07
